Time;durP1;ratioP1;P1;durP2;ratioP2;P2;SDS_P1;SDS_P2;PMS_P1;PMS_P2;Temp;Humidity;BMP_temperature;BMP_pressure;BME280_temperature;BME280_humidity;BME280_pressure;Samples;Min_cycle;Max_cycle;Signal;HPM_P1;HPM_P2
2022/06/13 00:02:10;;;;;;;3.30;1.30;;;22.40;55.70;;;;;;4430154;32;20590;-70
2022/06/13 00:04:36;;;;;;;3.47;1.40;;;22.40;55.70;;;;;;4434544;32;20133;-70
2022/06/13 00:07:02;;;;;;;1.88;0.98;;;22.40;55.80;;;;;;4435027;32;20071;-70
2022/06/13 00:09:28;;;;;;;3.65;1.05;;;22.40;55.80;;;;;;4434751;32;20066;-71
2022/06/13 00:11:56;;;;;;;3.33;1.35;;;22.30;55.70;;;;;;4434713;32;20452;-70
2022/06/13 00:14:22;;;;;;;4.47;1.67;;;22.40;55.80;;;;;;4434664;32;20157;-70
2022/06/13 00:16:48;;;;;;;2.97;1.30;;;22.40;55.80;;;;;;4420625;32;20074;-70
2022/06/13 00:19:13;;;;;;;2.75;1.50;;;22.40;55.90;;;;;;4434928;32;20216;-70
2022/06/13 00:21:39;;;;;;;1.80;1.20;;;22.40;55.90;;;;;;4434756;32;20404;-70
2022/06/13 00:24:07;;;;;;;2.95;1.20;;;22.30;55.90;;;;;;4420479;32;20085;-70
2022/06/13 00:26:35;;;;;;;3.03;1.30;;;22.30;55.90;;;;;;4434417;32;20164;-70
2022/06/13 00:29:02;;;;;;;2.22;1.17;;;22.30;55.90;;;;;;4434803;32;20118;-69
2022/06/13 00:31:28;;;;;;;3.72;1.30;;;22.30;55.90;;;;;;4420452;32;20094;-70
2022/06/13 00:33:54;;;;;;;2.63;1.27;;;22.30;56.00;;;;;;4434427;32;20152;-68
2022/06/13 00:36:23;;;;;;;2.38;1.30;;;22.30;56.00;;;;;;4434622;32;20083;-69
2022/06/13 00:38:52;;;;;;;2.47;1.02;;;22.30;56.00;;;;;;4434893;32;20086;-69
2022/06/13 00:41:35;;;;;;;2.42;1.58;;;22.30;56.00;;;;;;4434523;32;20094;-69
2022/06/13 00:44:02;;;;;;;3.05;1.20;;;22.30;56.00;;;;;;4434693;32;20535;-70
2022/06/13 00:46:34;;;;;;;2.67;1.30;;;22.30;56.10;;;;;;4434448;32;20490;-69
2022/06/13 00:49:09;;;;;;;1.80;1.10;;;22.30;56.20;;;;;;4434266;32;20496;-70
2022/06/13 00:51:39;;;;;;;3.05;1.20;;;22.30;56.10;;;;;;4434517;32;20506;-68
2022/06/13 00:54:06;;;;;;;2.28;1.02;;;22.30;56.20;;;;;;4434475;32;20159;-69
2022/06/13 00:56:35;;;;;;;2.65;0.95;;;22.30;56.20;;;;;;4420705;32;20427;-69
2022/06/13 00:59:04;;;;;;;3.90;1.80;;;22.30;56.30;;;;;;4434039;32;20168;-69
2022/06/13 01:01:33;;;;;;;1.85;1.10;;;22.30;57.20;;;;;;4434180;32;20092;-70
2022/06/13 01:04:02;;;;;;;2.38;1.05;;;22.20;56.30;;;;;;4434000;32;20295;-74
2022/06/13 01:06:32;;;;;;;2.03;1.00;;;22.20;56.30;;;;;;4434489;32;20192;-70
2022/06/13 01:09:00;;;;;;;3.55;1.20;;;22.20;56.30;;;;;;4434049;32;20405;-70
2022/06/13 01:11:26;;;;;;;2.15;1.10;;;22.20;56.30;;;;;;4434042;32;20094;-70
2022/06/13 01:14:08;;;;;;;2.03;1.13;;;22.20;56.30;;;;;;4433537;32;20130;-70
2022/06/13 01:16:52;;;;;;;2.63;1.27;;;22.20;56.30;;;;;;4418314;32;20389;-69
2022/06/13 01:19:45;;;;;;;3.05;1.40;;;22.20;56.30;;;;;;4432192;32;20408;-70
2022/06/13 01:22:26;;;;;;;2.55;1.27;;;22.20;56.30;;;;;;4432075;32;20200;-69
2022/06/13 01:25:11;;;;;;;2.42;1.20;;;22.20;56.30;;;;;;4432206;32;20499;-71
2022/06/13 01:28:06;;;;;;;3.08;1.08;;;22.20;56.30;;;;;;4431466;32;20130;-70
2022/06/13 01:30:55;;;;;;;2.40;1.20;;;22.20;56.40;;;;;;4431963;32;20606;-70
2022/06/13 01:33:51;;;;;;;2.40;1.20;;;22.20;56.50;;;;;;4431599;32;20089;-69
2022/06/13 01:36:44;;;;;;;3.03;1.02;;;22.20;56.40;;;;;;4431711;32;20381;-70
2022/06/13 01:39:19;;;;;;;1.85;1.02;;;22.20;56.50;;;;;;4431655;32;20097;-70
2022/06/13 01:42:29;;;;;;;4.30;1.25;;;22.10;56.40;;;;;;4431865;32;20165;-70
2022/06/13 01:44:55;;;;;;;1.80;1.25;;;22.10;56.40;;;;;;4407506;32;20067;-70
2022/06/13 01:47:45;;;;;;;1.83;0.93;;;22.10;56.50;;;;;;4431419;32;20496;-70
2022/06/13 01:50:31;;;;;;;3.85;1.40;;;22.10;56.50;;;;;;4431434;32;20066;-69
2022/06/13 01:53:00;;;;;;;2.15;1.17;;;22.10;56.50;;;;;;4431690;32;20105;-69
2022/06/13 01:55:32;;;;;;;2.50;1.50;;;22.10;56.60;;;;;;4431281;32;20078;-73
2022/06/13 01:58:08;;;;;;;3.83;1.27;;;22.10;56.60;;;;;;4405012;32;20460;-70
2022/06/13 02:00:35;;;;;;;2.05;1.08;;;22.10;56.60;;;;;;4431328;32;20066;-70
2022/06/13 02:03:26;;;;;;;1.55;0.93;;;22.10;56.60;;;;;;4431129;32;20122;-70
2022/06/13 02:06:03;;;;;;;2.30;1.00;;;22.10;56.60;;;;;;4431573;32;20074;-69
2022/06/13 02:08:44;;;;;;;2.58;1.30;;;22.10;56.70;;;;;;4431216;32;20097;-70
2022/06/13 02:11:17;;;;;;;1.98;1.10;;;22.10;56.70;;;;;;4431208;32;20122;-70
2022/06/13 02:14:08;;;;;;;3.22;1.10;;;22.10;56.70;;;;;;4431310;32;20249;-69
2022/06/13 02:17:09;;;;;;;1.98;1.30;;;22.10;56.70;;;;;;4430749;32;20062;-70
2022/06/13 02:19:47;;;;;;;2.78;0.90;;;22.10;56.70;;;;;;4431358;32;20170;-70
2022/06/13 02:22:21;;;;;;;2.13;1.10;;;22.10;56.70;;;;;;4431013;32;20082;-69
2022/06/13 02:24:54;;;;;;;2.40;1.02;;;22.10;56.70;;;;;;4431114;32;20070;-69
2022/06/13 02:27:24;;;;;;;2.00;1.00;;;22.10;56.80;;;;;;4416369;32;20090;-70
2022/06/13 02:29:56;;;;;;;2.58;1.13;;;22.10;56.80;;;;;;4430504;32;20111;-70
2022/06/13 02:32:29;;;;;;;1.95;1.00;;;22.00;56.80;;;;;;4430691;32;20106;-70
2022/06/13 02:35:05;;;;;;;3.03;1.17;;;22.00;56.80;;;;;;4430753;32;20092;-70
2022/06/13 02:37:33;;;;;;;1.90;0.95;;;22.00;56.80;;;;;;4431065;32;20098;-70
2022/06/13 02:40:11;;;;;;;1.80;1.00;;;22.00;56.90;;;;;;4430483;32;20097;-70
2022/06/13 02:42:40;;;;;;;1.48;0.90;;;22.00;56.90;;;;;;4417141;32;20066;-70
2022/06/13 02:45:15;;;;;;;2.20;1.20;;;22.00;56.90;;;;;;4430548;32;20228;-70
2022/06/13 02:47:45;;;;;;;1.85;0.88;;;22.00;56.90;;;;;;4430532;32;20066;-69
2022/06/13 02:50:17;;;;;;;2.80;1.08;;;22.00;56.90;;;;;;4430685;32;20108;-69
2022/06/13 02:52:50;;;;;;;0.93;0.85;;;22.00;56.90;;;;;;4430497;32;20234;-70
2022/06/13 02:55:18;;;;;;;1.13;0.98;;;22.00;56.90;;;;;;4430816;32;20086;-70
2022/06/13 02:58:19;;;;;;;1.20;0.80;;;22.00;57.00;;;;;;4430367;32;20089;-70
2022/06/13 03:01:02;;;;;;;1.80;0.90;;;22.00;57.00;;;;;;4367515;32;20096;-68
2022/06/13 03:04:08;;;;;;;2.15;1.10;;;22.00;57.00;;;;;;4424673;32;20168;-70
2022/06/13 03:06:35;;;;;;;1.30;1.00;;;22.00;57.00;;;;;;4430255;32;20066;-70
2022/06/13 03:09:31;;;;;;;1.73;1.00;;;22.00;57.10;;;;;;4430236;32;20217;-70
2022/06/13 03:12:07;;;;;;;2.42;1.20;;;22.00;57.00;;;;;;4429032;32;20089;-70
2022/06/13 03:15:25;;;;;;;1.42;0.82;;;22.00;57.10;;;;;;4429949;32;20115;-70
2022/06/13 03:17:57;;;;;;;2.00;0.95;;;22.00;57.10;;;;;;4367550;32;20072;-70
2022/06/13 03:21:00;;;;;;;2.25;0.98;;;21.90;57.10;;;;;;4367796;32;20084;-70
2022/06/13 03:23:34;;;;;;;2.15;1.30;;;22.00;57.10;;;;;;4414541;32;20097;-69
2022/06/13 03:26:05;;;;;;;1.13;0.70;;;21.90;57.10;;;;;;4429480;32;20086;-71
2022/06/13 03:28:54;;;;;;;1.50;0.80;;;22.00;57.20;;;;;;4430091;32;20145;-70
2022/06/13 03:31:31;;;;;;;1.73;0.80;;;22.00;57.10;;;;;;4401014;32;20098;-70
2022/06/13 03:34:05;;;;;;;1.48;0.85;;;22.00;57.20;;;;;;4430025;32;20404;-70
2022/06/13 03:36:39;;;;;;;2.38;1.25;;;21.90;57.20;;;;;;4429996;32;20066;-70
2022/06/13 03:39:17;;;;;;;1.55;0.80;;;21.90;57.20;;;;;;4429621;32;20093;-70
2022/06/13 03:41:57;;;;;;;1.17;0.80;;;21.90;57.20;;;;;;4430176;32;20117;-70
2022/06/13 03:44:50;;;;;;;2.15;0.98;;;21.90;57.30;;;;;;4429857;32;20070;-70
2022/06/13 03:47:22;;;;;;;2.13;0.90;;;21.90;57.20;;;;;;4430174;32;20160;-70
2022/06/13 03:50:00;;;;;;;1.42;0.90;;;21.90;57.30;;;;;;4430151;32;20074;-70
2022/06/13 03:52:29;;;;;;;1.13;0.73;;;21.90;57.30;;;;;;4429854;32;20393;-70
2022/06/13 03:55:02;;;;;;;1.98;1.00;;;21.90;57.30;;;;;;4429676;32;20082;-69
2022/06/13 03:57:34;;;;;;;1.42;0.70;;;21.90;57.30;;;;;;4430105;32;20086;-69
2022/06/13 04:00:12;;;;;;;1.33;0.82;;;21.90;57.40;;;;;;4429784;32;20224;-70
2022/06/13 04:02:40;;;;;;;1.38;0.85;;;21.90;57.40;;;;;;4429499;32;20223;-70
2022/06/13 04:05:20;;;;;;;2.33;1.15;;;21.80;57.40;;;;;;4429528;32;20074;-70
2022/06/13 04:07:46;;;;;;;1.45;0.90;;;21.90;57.40;;;;;;4429458;32;20093;-69
2022/06/13 04:10:15;;;;;;;1.60;0.82;;;21.90;57.40;;;;;;4429595;32;20507;-70
2022/06/13 04:12:53;;;;;;;1.70;0.80;;;21.90;57.40;;;;;;4429583;32;20070;-69
2022/06/13 04:15:25;;;;;;;1.85;0.90;;;21.80;57.40;;;;;;4429644;32;20090;-69
2022/06/13 04:18:00;;;;;;;3.15;0.90;;;21.80;57.40;;;;;;4429368;32;20136;-70
2022/06/13 04:20:35;;;;;;;1.55;0.82;;;21.90;57.50;;;;;;4429511;32;20164;-70
2022/06/13 04:23:29;;;;;;;1.52;0.85;;;21.80;57.40;;;;;;4429218;32;20082;-70
2022/06/13 04:26:15;;;;;;;1.10;0.68;;;21.90;57.50;;;;;;4429621;32;20535;-70
2022/06/13 04:29:05;;;;;;;1.52;0.82;;;21.80;57.50;;;;;;4429830;32;20090;-69
2022/06/13 04:31:32;;;;;;;1.80;1.00;;;21.80;57.50;;;;;;4429716;32;20067;-70
2022/06/13 04:34:15;;;;;;;1.77;1.08;;;21.80;57.50;;;;;;4429345;32;20085;-70
2022/06/13 04:36:45;;;;;;;1.73;0.90;;;21.80;57.50;;;;;;4429588;32;20079;-70
2022/06/13 04:39:14;;;;;;;1.50;1.02;;;21.80;57.60;;;;;;4429413;32;20075;-70
2022/06/13 04:41:44;;;;;;;1.73;0.95;;;21.80;57.60;;;;;;4429327;32;20550;-70
2022/06/13 04:44:18;;;;;;;1.17;0.85;;;21.80;57.60;;;;;;4429262;32;20194;-73
2022/06/13 04:46:44;;;;;;;1.10;0.70;;;21.80;57.60;;;;;;4429448;32;20201;-72
2022/06/13 04:49:31;;;;;;;1.90;0.88;;;21.80;57.60;;;;;;4430112;32;20090;-73
2022/06/13 04:51:59;;;;;;;1.50;0.82;;;21.80;57.70;;;;;;4432236;32;20412;-72
2022/06/13 04:54:50;;;;;;;1.20;0.75;;;21.80;58.60;;;;;;4431963;32;20545;-72
2022/06/13 04:57:17;;;;;;;2.15;0.85;;;21.80;57.70;;;;;;4432223;32;20483;-72
2022/06/13 04:59:45;;;;;;;1.33;0.75;;;21.80;57.70;;;;;;4432119;32;20538;-72
2022/06/13 05:02:18;;;;;;;1.33;1.00;;;21.80;57.80;;;;;;4418356;32;20074;-72
2022/06/13 05:04:45;;;;;;;1.55;0.80;;;21.80;57.80;;;;;;4432280;32;20500;-72
2022/06/13 05:07:17;;;;;;;1.35;0.80;;;21.80;57.80;;;;;;4432231;32;20098;-72
2022/06/13 05:10:00;;;;;;;1.23;0.77;;;21.80;57.80;;;;;;4432242;32;20125;-73
2022/06/13 05:12:43;;;;;;;1.52;0.95;;;21.70;57.80;;;;;;4431974;32;20125;-72
2022/06/13 05:15:26;;;;;;;1.45;0.88;;;21.70;57.80;;;;;;4432055;32;20129;-72
2022/06/13 05:18:45;;;;;;;1.77;1.00;;;21.80;57.80;;;;;;4418252;32;20089;-72
2022/06/13 05:21:47;;;;;;;2.00;0.90;;;21.70;57.80;;;;;;4369312;32;20068;-72
2022/06/13 05:24:53;;;;;;;1.83;0.90;;;21.80;57.90;;;;;;4409671;32;20192;-74
2022/06/13 05:27:19;;;;;;;2.05;0.90;;;21.80;58.00;;;;;;4397185;32;20074;-72
2022/06/13 05:29:45;;;;;;;1.55;0.90;;;21.80;57.90;;;;;;4417583;32;20508;-72
2022/06/13 05:32:13;;;;;;;1.92;0.90;;;21.70;57.90;;;;;;4431374;32;20408;-72
2022/06/13 05:34:41;;;;;;;2.17;0.98;;;21.80;58.00;;;;;;4431781;32;20098;-72
2022/06/13 05:37:09;;;;;;;1.67;1.02;;;21.80;58.00;;;;;;4431608;32;20079;-72
2022/06/13 05:39:36;;;;;;;1.40;0.80;;;21.80;58.00;;;;;;4431807;32;20500;-73
2022/06/13 05:42:03;;;;;;;2.17;0.98;;;21.70;57.90;;;;;;4431487;32;20133;-73
2022/06/13 05:44:29;;;;;;;1.73;0.85;;;21.80;58.00;;;;;;4431490;32;20074;-72
2022/06/13 05:46:55;;;;;;;0.90;0.55;;;21.80;58.00;;;;;;4417593;32;20062;-72
2022/06/13 05:49:21;;;;;;;1.85;0.70;;;21.70;58.00;;;;;;4431436;32;20105;-72
2022/06/13 05:51:47;;;;;;;0.80;0.65;;;21.80;58.10;;;;;;4417389;32;20213;-72
2022/06/13 05:54:13;;;;;;;1.40;0.75;;;21.80;58.10;;;;;;4431625;32;20114;-72
2022/06/13 05:56:40;;;;;;;1.55;0.85;;;21.80;58.10;;;;;;4431030;32;20213;-72
2022/06/13 05:59:06;;;;;;;1.42;0.80;;;21.80;58.10;;;;;;4431044;32;20078;-72
2022/06/13 06:01:34;;;;;;;1.25;0.80;;;21.70;58.10;;;;;;4430706;32;20075;-72
2022/06/13 06:04:00;;;;;;;1.63;0.80;;;21.80;58.10;;;;;;4431093;32;20130;-72
2022/06/13 06:06:27;;;;;;;1.65;0.98;;;21.80;58.10;;;;;;4431505;32;20092;-72
2022/06/13 06:08:54;;;;;;;1.27;0.65;;;21.70;58.10;;;;;;4431157;32;20177;-72
2022/06/13 06:11:22;;;;;;;0.88;0.57;;;21.70;58.10;;;;;;4417291;32;20094;-72
2022/06/13 06:13:48;;;;;;;1.45;0.70;;;21.80;58.10;;;;;;4431342;32;20497;-73
2022/06/13 06:16:17;;;;;;;1.75;0.80;;;21.80;58.20;;;;;;4431023;32;20081;-72
2022/06/13 06:18:43;;;;;;;1.08;0.65;;;21.70;58.10;;;;;;4430972;32;20604;-73
2022/06/13 06:21:09;;;;;;;1.25;0.80;;;21.80;58.20;;;;;;4430978;32;20074;-72
2022/06/13 06:23:35;;;;;;;3.53;0.50;;;21.80;58.30;;;;;;4431136;32;20081;-73
2022/06/13 06:26:01;;;;;;;1.05;0.65;;;21.80;58.30;;;;;;4430813;32;20483;-73
2022/06/13 06:28:27;;;;;;;1.42;0.90;;;21.70;58.20;;;;;;4430691;32;20094;-72
2022/06/13 06:30:56;;;;;;;1.60;0.90;;;21.70;58.20;;;;;;4430879;32;20071;-72
2022/06/13 06:33:23;;;;;;;1.50;0.80;;;21.70;58.20;;;;;;4431011;32;20078;-72
2022/06/13 06:35:51;;;;;;;1.15;0.73;;;21.70;58.20;;;;;;4430291;32;20098;-72
2022/06/13 06:38:18;;;;;;;2.05;0.77;;;21.70;58.30;;;;;;4430730;32;20125;-72
2022/06/13 06:40:44;;;;;;;1.30;0.90;;;21.70;58.30;;;;;;4430669;32;20098;-72
2022/06/13 06:43:10;;;;;;;1.25;0.70;;;21.70;58.30;;;;;;4416416;32;20070;-72
2022/06/13 06:45:37;;;;;;;2.33;0.68;;;21.80;58.40;;;;;;4430073;32;20075;-79
2022/06/13 06:48:03;;;;;;;1.55;0.70;;;21.80;58.40;;;;;;4430511;32;20106;-73
2022/06/13 06:50:34;;;;;;;1.23;0.70;;;21.80;58.30;;;;;;4430229;32;20082;-72
2022/06/13 06:53:00;;;;;;;0.57;0.50;;;21.80;58.40;;;;;;4430796;32;20093;-71
2022/06/13 07:01:01;;;;;;;7.88;0.88;;;22.00;58.40;;;;;;4430553;32;20588;-74
2022/06/13 07:03:27;;;;;;;2.58;0.90;;;22.00;58.30;;;;;;4430581;32;20404;-74
2022/06/13 07:05:53;;;;;;;2.60;0.90;;;22.00;58.50;;;;;;4430073;32;20102;-76
2022/06/13 07:08:19;;;;;;;2.05;0.63;;;22.00;58.40;;;;;;4430299;32;20152;-76
2022/06/13 07:10:49;;;;;;;2.97;0.88;;;22.00;58.40;;;;;;4429924;32;20078;-75
2022/06/13 07:13:17;;;;;;;2.97;1.00;;;22.00;58.50;;;;;;4415410;32;20078;-75
2022/06/13 07:15:43;;;;;;;2.22;0.80;;;22.00;58.40;;;;;;4429858;32;20106;-76
2022/06/13 07:18:09;;;;;;;2.95;1.15;;;22.00;58.40;;;;;;4416446;32;20081;-76
2022/06/13 07:20:36;;;;;;;3.20;0.88;;;22.00;58.40;;;;;;4416284;32;20396;-75
2022/06/13 07:23:02;;;;;;;3.60;1.08;;;22.00;58.40;;;;;;4430092;32;20075;-75
2022/06/13 07:25:30;;;;;;;2.15;0.65;;;22.00;59.30;;;;;;4429957;32;20220;-74
2022/06/13 07:27:57;;;;;;;3.35;0.80;;;22.10;58.50;;;;;;4416086;32;20082;-76
2022/06/13 07:30:26;;;;;;;4.00;0.80;;;22.10;58.50;;;;;;4430071;32;20571;-75
2022/06/13 07:32:54;;;;;;;1.92;0.80;;;22.10;58.60;;;;;;4430062;32;20066;-75
2022/06/13 07:35:22;;;;;;;3.42;1.08;;;22.10;58.60;;;;;;4429841;32;20220;-75
2022/06/13 07:40:40;;;;;;;4.40;0.90;;;22.20;58.90;;;;;;4429938;32;20089;-74
2022/06/13 07:43:06;;;;;;;2.75;0.82;;;22.20;58.80;;;;;;4430123;32;20093;-75
2022/06/13 07:45:39;;;;;;;5.55;0.82;;;22.30;58.80;;;;;;4429819;32;20420;-74
2022/06/13 07:48:06;;;;;;;2.08;0.80;;;22.30;58.90;;;;;;4430174;32;20066;-74
2022/06/13 07:50:32;;;;;;;2.85;0.93;;;22.30;58.80;;;;;;4430127;32;20208;-75
2022/06/13 07:52:58;;;;;;;3.88;0.88;;;22.30;58.80;;;;;;4429798;32;20130;-74
2022/06/13 07:55:26;;;;;;;4.38;0.95;;;22.30;58.80;;;;;;4415678;32;20220;-75
2022/06/13 07:57:52;;;;;;;1.95;0.52;;;22.30;58.80;;;;;;4429758;32;20496;-74
2022/06/13 08:00:30;;;;;;;2.47;0.90;;;22.30;58.90;;;;;;4428731;32;20094;-74
2022/06/13 08:02:56;;;;;;;4.80;1.20;;;22.40;59.00;;;;;;4429908;32;20409;-79
2022/06/13 08:05:22;;;;;;;3.78;0.90;;;22.40;59.00;;;;;;4429391;32;20082;-76
2022/06/13 08:07:48;;;;;;;3.13;0.82;;;22.40;58.90;;;;;;4429645;32;20066;-73
2022/06/13 08:10:15;;;;;;;5.05;0.95;;;22.40;58.90;;;;;;4429473;32;20066;-74
2022/06/13 08:12:44;;;;;;;2.85;0.88;;;22.40;58.80;;;;;;4429629;32;20090;-74
2022/06/13 08:15:12;;;;;;;4.53;0.88;;;22.50;58.80;;;;;;4429291;32;20535;-73
2022/06/13 08:17:38;;;;;;;3.88;0.80;;;22.50;58.60;;;;;;4429844;32;20077;-74
2022/06/13 08:20:04;;;;;;;5.40;1.00;;;22.50;58.80;;;;;;4415670;32;20087;-74
2022/06/13 08:22:32;;;;;;;4.97;0.85;;;22.40;58.70;;;;;;4429461;32;20161;-77
2022/06/13 08:24:57;;;;;;;5.47;0.90;;;22.50;58.80;;;;;;4431485;32;20070;-73
2022/06/13 08:27:26;;;;;;;5.03;0.80;;;22.50;58.70;;;;;;4432423;32;20149;-73
2022/06/13 08:29:52;;;;;;;3.40;1.10;;;22.50;58.60;;;;;;4432785;32;20103;-73
2022/06/13 08:32:18;;;;;;;3.78;0.70;;;22.50;58.60;;;;;;4432716;32;20075;-73
2022/06/13 08:34:44;;;;;;;3.40;0.70;;;22.50;58.50;;;;;;4432603;32;20385;-73
2022/06/13 08:37:10;;;;;;;4.40;0.77;;;22.50;58.50;;;;;;4432580;32;20081;-73
2022/06/13 08:39:36;;;;;;;3.08;0.90;;;22.50;58.30;;;;;;4432431;32;20132;-79
2022/06/13 08:42:07;;;;;;;2.67;0.70;;;22.50;58.40;;;;;;4432179;32;20066;-74
2022/06/13 08:44:51;;;;;;;3.13;0.90;;;22.60;58.30;;;;;;4432438;32;20102;-74
2022/06/13 08:47:33;;;;;;;4.47;1.23;;;22.50;58.10;;;;;;4432041;32;20089;-75
2022/06/13 08:50:22;;;;;;;3.95;0.77;;;22.60;58.20;;;;;;4432688;32;20129;-74
2022/06/13 08:53:03;;;;;;;5.32;0.90;;;22.60;58.10;;;;;;4432070;32;20149;-74
2022/06/13 08:55:47;;;;;;;2.28;0.68;;;22.60;58.10;;;;;;4432623;32;20216;-73
2022/06/13 08:58:19;;;;;;;5.00;0.73;;;22.60;57.90;;;;;;4432505;32;20265;-73
2022/06/13 09:00:52;;;;;;;3.92;0.90;;;22.50;57.90;;;;;;4432152;32;20090;-73
2022/06/13 09:03:28;;;;;;;2.95;0.80;;;22.50;57.90;;;;;;4432396;32;20097;-76
2022/06/13 09:06:14;;;;;;;5.28;0.90;;;22.50;57.80;;;;;;4432199;32;20133;-73
2022/06/13 09:08:59;;;;;;;3.70;1.00;;;22.50;57.70;;;;;;4432062;32;20067;-74
2022/06/13 09:11:41;;;;;;;2.60;0.90;;;22.50;57.70;;;;;;4431999;32;20487;-73
2022/06/13 09:14:34;;;;;;;2.67;0.80;;;22.50;57.70;;;;;;4432357;32;20539;-74
2022/06/13 09:17:16;;;;;;;4.65;0.73;;;22.50;57.80;;;;;;4432979;32;20078;-76
2022/06/13 09:20:04;;;;;;;5.20;0.90;;;22.50;57.70;;;;;;4432872;32;20078;-73
2022/06/13 09:22:43;;;;;;;5.85;1.17;;;22.50;57.50;;;;;;4432547;32;20070;-73
2022/06/13 09:25:30;;;;;;;4.00;0.80;;;22.50;57.20;;;;;;4432449;32;20125;-73
2022/06/13 09:28:05;;;;;;;5.20;1.10;;;22.60;57.40;;;;;;4431973;32;20074;-73
2022/06/13 09:30:38;;;;;;;7.18;1.27;;;22.60;57.40;;;;;;4431967;32;20070;-73
2022/06/13 09:33:30;;;;;;;6.65;1.20;;;22.60;57.40;;;;;;4431723;32;20236;-74
2022/06/13 09:35:59;;;;;;;4.32;1.05;;;22.60;57.40;;;;;;4422493;32;20500;-73
2022/06/13 09:38:50;;;;;;;5.55;0.98;;;22.60;57.40;;;;;;4431844;32;20180;-74
2022/06/13 09:41:22;;;;;;;5.03;1.25;;;22.60;58.30;;;;;;4431633;32;20539;-74
2022/06/13 09:44:05;;;;;;;6.13;1.30;;;22.60;57.40;;;;;;4431816;32;20196;-73
2022/06/13 09:46:42;;;;;;;3.65;1.17;;;22.60;57.30;;;;;;4431691;32;20070;-77
2022/06/13 09:49:40;;;;;;;4.90;1.42;;;22.60;57.20;;;;;;4431399;32;20129;-72
2022/06/13 09:52:16;;;;;;;6.72;1.10;;;22.60;57.20;;;;;;4428600;32;20637;-72
2022/06/13 09:54:54;;;;;;;6.72;1.15;;;22.60;57.20;;;;;;4431511;32;20181;-74
2022/06/13 09:57:36;;;;;;;13.27;1.40;;;22.70;57.00;;;;;;4431608;32;20140;-74
2022/06/13 10:00:11;;;;;;;7.53;1.65;;;22.70;56.80;;;;;;4431089;32;20137;-75
2022/06/13 10:02:43;;;;;;;6.18;1.58;;;22.70;56.60;;;;;;4431307;32;20404;-73
2022/06/13 10:05:32;;;;;;;7.47;1.55;;;22.70;56.60;;;;;;4417228;32;20482;-73
2022/06/13 10:08:07;;;;;;;3.58;1.00;;;22.70;56.30;;;;;;4431488;32;20070;-73
2022/06/13 10:10:44;;;;;;;5.72;1.30;;;22.80;56.40;;;;;;4431285;32;20078;-74
2022/06/13 10:13:19;;;;;;;7.43;1.30;;;22.80;56.20;;;;;;4431277;32;20078;-73
2022/06/13 10:15:54;;;;;;;5.28;1.25;;;22.80;56.20;;;;;;4431188;32;20079;-75
2022/06/13 10:18:33;;;;;;;6.15;1.25;;;22.80;56.10;;;;;;4431022;32;20085;-74
2022/06/13 10:21:02;;;;;;;5.60;1.30;;;22.80;55.90;;;;;;4431298;32;20083;-74
2022/06/13 10:23:46;;;;;;;8.57;1.63;;;22.80;55.80;;;;;;4430665;32;20086;-74
2022/06/13 10:26:29;;;;;;;3.40;1.15;;;22.90;55.70;;;;;;4430800;32;20082;-74
2022/06/13 10:29:17;;;;;;;5.40;1.40;;;22.90;55.50;;;;;;4417275;32;20082;-75
2022/06/13 10:31:57;;;;;;;6.65;1.65;;;22.90;55.60;;;;;;4431144;32;20145;-75
2022/06/13 10:34:47;;;;;;;6.93;1.40;;;22.90;55.50;;;;;;4430798;32;20074;-75
2022/06/13 10:38:00;;;;;;;5.32;1.50;;;22.90;55.40;;;;;;4430654;32;20188;-76
2022/06/13 10:40:26;;;;;;;7.68;1.83;;;22.90;55.50;;;;;;4402887;32;20070;-75
2022/06/13 10:42:53;;;;;;;7.70;1.80;;;22.90;55.70;;;;;;4430596;32;20228;-75
2022/06/13 10:45:20;;;;;;;7.63;1.50;;;22.90;55.70;;;;;;4430514;32;20100;-74
2022/06/13 10:47:49;;;;;;;6.28;1.40;;;22.90;56.70;;;;;;4430101;32;20260;-74
2022/06/13 10:50:27;;;;;;;4.40;1.35;;;22.90;55.90;;;;;;4430638;32;20105;-74
2022/06/13 10:52:57;;;;;;;6.32;1.48;;;22.90;55.90;;;;;;4430358;32;20085;-78
2022/06/13 10:55:26;;;;;;;6.38;1.40;;;22.90;55.90;;;;;;4430929;32;20070;-74
2022/06/13 10:58:06;;;;;;;6.22;1.35;;;22.80;55.80;;;;;;4430251;32;20136;-74
2022/06/13 11:00:32;;;;;;;6.63;1.45;;;22.80;55.60;;;;;;4430617;32;20204;-74
2022/06/13 11:03:17;;;;;;;7.18;1.88;;;22.80;55.60;;;;;;4416361;32;20378;-73
2022/06/13 11:06:00;;;;;;;6.97;1.60;;;22.80;55.60;;;;;;4430225;32;20071;-73
2022/06/13 11:08:27;;;;;;;7.17;1.63;;;22.80;55.70;;;;;;4430363;32;20082;-74
2022/06/13 11:10:59;;;;;;;7.50;1.80;;;22.80;55.80;;;;;;4429975;32;20114;-73
2022/06/13 11:13:28;;;;;;;7.65;1.92;;;22.80;55.90;;;;;;4430195;32;20522;-73
2022/06/13 11:22:38;;;;;;;6.93;1.60;;;22.70;55.60;;;;;;4430459;32;20120;-74
2022/06/13 11:25:21;;;;;;;6.05;1.50;;;22.80;55.80;;;;;;4430047;32;20102;-74
2022/06/13 11:28:09;;;;;;;7.15;1.92;;;22.70;55.70;;;;;;4430004;32;20168;-74
2022/06/13 11:30:40;;;;;;;6.05;1.60;;;22.70;55.60;;;;;;4430317;32;20097;-75
2022/06/13 11:33:09;;;;;;;5.07;1.50;;;22.70;55.60;;;;;;4416282;32;20074;-75
2022/06/13 11:36:01;;;;;;;9.23;1.90;;;22.70;55.50;;;;;;4430083;32;20140;-73
2022/06/13 11:38:29;;;;;;;6.88;2.10;;;22.70;55.50;;;;;;4405786;32;20078;-75
2022/06/13 11:41:20;;;;;;;5.10;1.67;;;22.70;56.60;;;;;;4429811;32;20228;-75
2022/06/13 11:43:50;;;;;;;6.18;1.70;;;22.70;56.50;;;;;;4429566;32;20070;-76
2022/06/13 11:46:26;;;;;;;4.43;1.02;;;22.70;55.50;;;;;;4429683;32;20534;-77
2022/06/13 11:48:53;;;;;;;7.28;1.80;;;22.70;55.60;;;;;;4429402;32;20102;-73
2022/06/13 11:51:35;;;;;;;5.43;1.50;;;22.70;55.40;;;;;;4429554;32;20097;-75
2022/06/13 11:54:01;;;;;;;7.90;1.80;;;22.70;55.10;;;;;;4430517;32;20082;-73
2022/06/13 11:56:33;;;;;;;5.90;1.55;;;22.70;55.20;;;;;;4429504;32;20077;-73
2022/06/13 11:59:04;;;;;;;5.30;1.42;;;22.70;55.20;;;;;;4429359;32;20090;-72
2022/06/13 12:01:37;;;;;;;5.93;1.40;;;22.70;55.10;;;;;;4429956;32;20117;-72
2022/06/13 12:04:29;;;;;;;4.85;0.95;;;22.70;55.00;;;;;;4429698;32;20087;-73
2022/06/13 12:06:58;;;;;;;4.13;1.10;;;22.70;54.80;;;;;;4426751;32;20082;-72
2022/06/13 12:09:34;;;;;;;6.03;1.48;;;22.70;54.80;;;;;;4429577;32;20529;-73
2022/06/13 12:12:07;;;;;;;4.32;1.23;;;22.70;54.70;;;;;;4429942;32;20091;-74
2022/06/13 12:14:39;;;;;;;5.88;1.50;;;22.70;54.70;;;;;;4429610;32;20624;-73
2022/06/13 12:17:15;;;;;;;3.88;1.10;;;22.70;54.70;;;;;;4429968;32;20086;-73
2022/06/13 12:19:44;;;;;;;4.75;1.38;;;22.70;54.60;;;;;;4429739;32;20074;-73
2022/06/13 12:22:20;;;;;;;5.72;1.00;;;22.70;54.50;;;;;;4429759;32;20097;-73
2022/06/13 12:25:04;;;;;;;5.53;1.13;;;22.70;54.50;;;;;;4428938;32;20524;-73
2022/06/13 12:27:46;;;;;;;8.77;1.50;;;22.70;54.70;;;;;;4428911;32;20181;-74
2022/06/13 12:30:49;;;;;;;6.82;1.60;;;22.70;54.40;;;;;;4429959;32;20530;-76
2022/06/13 12:33:34;;;;;;;4.70;1.38;;;22.70;54.50;;;;;;4366857;32;20131;-74
2022/06/13 12:36:20;;;;;;;4.55;1.30;;;22.70;54.60;;;;;;4425148;32;20082;-74
2022/06/13 12:39:09;;;;;;;6.95;1.48;;;22.80;54.70;;;;;;4397255;32;20090;-74
2022/06/13 12:41:47;;;;;;;7.72;1.52;;;22.70;54.60;;;;;;4429504;32;20086;-72
2022/06/13 12:44:13;;;;;;;5.57;1.35;;;22.80;54.60;;;;;;4429607;32;20096;-72
2022/06/13 12:46:59;;;;;;;6.32;1.58;;;22.80;54.70;;;;;;4429397;32;20078;-72
2022/06/13 12:50:02;;;;;;;9.77;1.63;;;22.80;54.80;;;;;;4429386;32;20086;-71
2022/06/13 12:52:41;;;;;;;7.75;1.25;;;22.80;54.90;;;;;;4429336;32;20067;-72
2022/06/13 12:55:31;;;;;;;5.65;1.17;;;22.80;55.10;;;;;;4429421;32;20089;-73
2022/06/13 12:58:09;;;;;;;5.78;1.48;;;22.70;54.90;;;;;;4429361;32;20059;-72
2022/06/13 13:01:02;;;;;;;7.40;1.60;;;22.80;55.10;;;;;;4429351;32;20236;-73
2022/06/13 13:03:28;;;;;;;7.07;0.95;;;22.70;54.90;;;;;;4429081;32;20118;-73
2022/06/13 13:06:31;;;;;;;6.57;1.60;;;22.70;55.00;;;;;;4414974;32;20201;-73
2022/06/13 13:09:02;;;;;;;6.45;1.52;;;22.80;55.00;;;;;;4429230;32;20078;-74
2022/06/13 13:11:44;;;;;;;4.20;1.10;;;22.70;54.80;;;;;;4431477;32;20086;-73
2022/06/13 13:14:28;;;;;;;6.07;1.20;;;22.70;54.70;;;;;;4431874;32;20390;-73
2022/06/13 13:17:16;;;;;;;5.13;1.40;;;22.70;54.50;;;;;;4432314;32;20153;-73
2022/06/13 13:19:52;;;;;;;4.88;1.30;;;22.80;54.70;;;;;;4432176;32;20121;-73
2022/06/13 13:22:39;;;;;;;4.95;1.10;;;22.70;54.60;;;;;;4431326;32;20091;-72
2022/06/13 13:25:28;;;;;;;5.38;1.00;;;22.80;54.80;;;;;;4431858;32;20086;-72
2022/06/13 13:28:14;;;;;;;4.88;0.98;;;22.80;54.60;;;;;;4420843;32;20212;-73
2022/06/13 13:31:05;;;;;;;6.03;1.23;;;22.80;54.30;;;;;;4431917;32;20077;-73
2022/06/13 13:33:37;;;;;;;4.78;1.17;;;22.80;54.30;;;;;;4431453;32;20078;-75
2022/06/13 13:36:08;;;;;;;5.97;0.90;;;22.80;54.40;;;;;;4431607;32;20412;-73
2022/06/13 13:38:45;;;;;;;3.63;1.17;;;22.80;54.00;;;;;;4431810;32;20106;-73
2022/06/13 13:41:37;;;;;;;6.78;1.45;;;22.80;54.20;;;;;;4431397;32;20097;-73
2022/06/13 13:44:18;;;;;;;2.95;1.05;;;22.80;54.20;;;;;;4432129;32;20541;-73
2022/06/13 13:46:54;;;;;;;6.95;1.10;;;22.80;54.10;;;;;;4431296;32;20305;-73